sensor_id;sensor_type;location;lat;lon;timestamp;P1;durP1;ratioP1;P2;durP2;ratioP2
68944;SDS011;55984;48.790;8.990;2023-04-15T00:01:42;16.90;;;7.57;;
68944;SDS011;55984;48.790;8.990;2023-04-15T00:04:09;15.97;;;7.40;;
68944;SDS011;55984;48.790;8.990;2023-04-15T00:06:35;17.13;;;6.87;;
68944;SDS011;55984;48.790;8.990;2023-04-15T00:09:03;15.43;;;7.43;;
68944;SDS011;55984;48.790;8.990;2023-04-15T00:11:29;19.17;;;7.90;;
68944;SDS011;55984;48.790;8.990;2023-04-15T00:13:55;20.80;;;8.70;;
68944;SDS011;55984;48.790;8.990;2023-04-15T00:16:21;23.10;;;9.23;;
68944;SDS011;55984;48.790;8.990;2023-04-15T00:18:46;22.53;;;8.87;;
68944;SDS011;55984;48.790;8.990;2023-04-15T00:21:12;21.93;;;9.10;;
68944;SDS011;55984;48.790;8.990;2023-04-15T00:23:38;20.20;;;9.27;;
68944;SDS011;55984;48.790;8.990;2023-04-15T00:26:04;20.63;;;9.77;;
68944;SDS011;55984;48.790;8.990;2023-04-15T00:28:30;23.87;;;9.23;;
68944;SDS011;55984;48.790;8.990;2023-04-15T00:30:56;20.77;;;8.87;;
68944;SDS011;55984;48.790;8.990;2023-04-15T00:33:22;17.60;;;8.70;;
68944;SDS011;55984;48.790;8.990;2023-04-15T00:35:47;23.30;;;9.63;;
68944;SDS011;55984;48.790;8.990;2023-04-15T00:41:00;21.17;;;9.13;;
68944;SDS011;55984;48.790;8.990;2023-04-15T00:43:26;22.03;;;8.40;;
68944;SDS011;55984;48.790;8.990;2023-04-15T00:46:00;20.13;;;9.05;;
68944;SDS011;55984;48.790;8.990;2023-04-15T00:48:29;20.27;;;8.73;;
68944;SDS011;55984;48.790;8.990;2023-04-15T00:50:57;22.47;;;9.00;;
68944;SDS011;55984;48.790;8.990;2023-04-15T00:53:23;22.20;;;9.63;;
68944;SDS011;55984;48.790;8.990;2023-04-15T00:55:49;21.63;;;9.27;;
68944;SDS011;55984;48.790;8.990;2023-04-15T00:58:16;20.37;;;9.30;;
68944;SDS011;55984;48.790;8.990;2023-04-15T01:00:43;28.73;;;8.87;;
68944;SDS011;55984;48.790;8.990;2023-04-15T01:03:10;21.23;;;8.53;;
68944;SDS011;55984;48.790;8.990;2023-04-15T01:05:35;23.67;;;9.43;;
68944;SDS011;55984;48.790;8.990;2023-04-15T01:08:03;19.77;;;8.85;;
68944;SDS011;55984;48.790;8.990;2023-04-15T01:13:00;25.93;;;9.20;;
68944;SDS011;55984;48.790;8.990;2023-04-15T01:15:27;22.97;;;10.10;;
68944;SDS011;55984;48.790;8.990;2023-04-15T01:17:54;19.13;;;8.80;;
68944;SDS011;55984;48.790;8.990;2023-04-15T01:20:20;24.47;;;10.03;;
68944;SDS011;55984;48.790;8.990;2023-04-15T01:22:46;22.50;;;8.87;;
68944;SDS011;55984;48.790;8.990;2023-04-15T01:25:16;30.07;;;10.40;;
68944;SDS011;55984;48.790;8.990;2023-04-15T01:27:44;23.30;;;10.00;;
68944;SDS011;55984;48.790;8.990;2023-04-15T01:30:18;28.07;;;10.97;;
68944;SDS011;55984;48.790;8.990;2023-04-15T01:32:44;19.60;;;9.67;;
68944;SDS011;55984;48.790;8.990;2023-04-15T01:35:13;25.20;;;10.30;;
68944;SDS011;55984;48.790;8.990;2023-04-15T01:37:39;26.07;;;9.90;;
68944;SDS011;55984;48.790;8.990;2023-04-15T01:40:05;17.53;;;8.33;;
68944;SDS011;55984;48.790;8.990;2023-04-15T01:42:31;31.23;;;9.10;;
68944;SDS011;55984;48.790;8.990;2023-04-15T01:45:00;19.00;;;9.40;;
68944;SDS011;55984;48.790;8.990;2023-04-15T01:47:26;22.77;;;9.70;;
68944;SDS011;55984;48.790;8.990;2023-04-15T01:49:59;26.60;;;9.83;;
68944;SDS011;55984;48.790;8.990;2023-04-15T01:52:25;24.87;;;11.37;;
68944;SDS011;55984;48.790;8.990;2023-04-15T01:54:53;22.27;;;10.33;;
68944;SDS011;55984;48.790;8.990;2023-04-15T01:57:19;24.43;;;10.47;;
68944;SDS011;55984;48.790;8.990;2023-04-15T01:59:59;24.77;;;10.53;;
68944;SDS011;55984;48.790;8.990;2023-04-15T02:02:25;23.33;;;10.83;;
68944;SDS011;55984;48.790;8.990;2023-04-15T02:07:22;26.93;;;10.50;;
68944;SDS011;55984;48.790;8.990;2023-04-15T02:09:50;23.20;;;9.60;;
68944;SDS011;55984;48.790;8.990;2023-04-15T02:12:16;25.93;;;10.10;;
68944;SDS011;55984;48.790;8.990;2023-04-15T02:14:42;26.80;;;10.80;;
68944;SDS011;55984;48.790;8.990;2023-04-15T02:17:08;23.97;;;9.80;;
68944;SDS011;55984;48.790;8.990;2023-04-15T02:19:34;25.93;;;10.83;;
68944;SDS011;55984;48.790;8.990;2023-04-15T02:22:02;30.37;;;11.53;;
68944;SDS011;55984;48.790;8.990;2023-04-15T02:24:28;28.20;;;11.20;;
68944;SDS011;55984;48.790;8.990;2023-04-15T02:27:02;28.30;;;12.00;;
68944;SDS011;55984;48.790;8.990;2023-04-15T02:29:30;30.90;;;11.77;;
68944;SDS011;55984;48.790;8.990;2023-04-15T02:34:41;39.50;;;12.50;;
68944;SDS011;55984;48.790;8.990;2023-04-15T02:37:16;32.50;;;11.67;;
68944;SDS011;55984;48.790;8.990;2023-04-15T02:39:52;42.97;;;12.20;;
68944;SDS011;55984;48.790;8.990;2023-04-15T02:42:19;28.03;;;11.00;;
68944;SDS011;55984;48.790;8.990;2023-04-15T02:47:20;30.87;;;12.47;;
68944;SDS011;55984;48.790;8.990;2023-04-15T02:50:05;29.10;;;12.32;;
68944;SDS011;55984;48.790;8.990;2023-04-15T02:52:39;31.77;;;11.90;;
68944;SDS011;55984;48.790;8.990;2023-04-15T02:55:17;29.00;;;11.00;;
68944;SDS011;55984;48.790;8.990;2023-04-15T02:57:44;30.43;;;12.17;;
68944;SDS011;55984;48.790;8.990;2023-04-15T03:00:15;30.00;;;11.20;;
68944;SDS011;55984;48.790;8.990;2023-04-15T03:02:43;29.00;;;10.93;;
68944;SDS011;55984;48.790;8.990;2023-04-15T03:05:13;29.42;;;11.60;;
68944;SDS011;55984;48.790;8.990;2023-04-15T03:07:39;24.98;;;11.35;;
68944;SDS011;55984;48.790;8.990;2023-04-15T03:10:06;26.23;;;10.77;;
68944;SDS011;55984;48.790;8.990;2023-04-15T03:12:33;25.70;;;11.60;;
68944;SDS011;55984;48.790;8.990;2023-04-15T03:15:02;30.40;;;12.20;;
68944;SDS011;55984;48.790;8.990;2023-04-15T03:17:28;25.98;;;10.48;;
68944;SDS011;55984;48.790;8.990;2023-04-15T03:19:54;29.30;;;12.52;;
68944;SDS011;55984;48.790;8.990;2023-04-15T03:22:20;30.43;;;11.40;;
68944;SDS011;55984;48.790;8.990;2023-04-15T03:24:47;36.07;;;11.93;;
68944;SDS011;55984;48.790;8.990;2023-04-15T03:27:13;27.77;;;11.50;;
68944;SDS011;55984;48.790;8.990;2023-04-15T03:29:39;25.23;;;10.87;;
68944;SDS011;55984;48.790;8.990;2023-04-15T03:32:08;24.70;;;11.10;;
68944;SDS011;55984;48.790;8.990;2023-04-15T03:34:37;27.80;;;10.50;;
68944;SDS011;55984;48.790;8.990;2023-04-15T03:37:04;28.27;;;12.05;;
68944;SDS011;55984;48.790;8.990;2023-04-15T03:39:30;28.98;;;11.30;;
68944;SDS011;55984;48.790;8.990;2023-04-15T03:41:56;33.10;;;12.80;;
68944;SDS011;55984;48.790;8.990;2023-04-15T03:44:22;33.13;;;12.93;;
68944;SDS011;55984;48.790;8.990;2023-04-15T03:46:48;29.57;;;13.07;;
68944;SDS011;55984;48.790;8.990;2023-04-15T03:49:15;33.43;;;11.80;;
68944;SDS011;55984;48.790;8.990;2023-04-15T03:51:41;28.60;;;12.03;;
68944;SDS011;55984;48.790;8.990;2023-04-15T03:54:09;30.47;;;11.90;;
68944;SDS011;55984;48.790;8.990;2023-04-15T03:56:35;30.38;;;11.93;;
68944;SDS011;55984;48.790;8.990;2023-04-15T03:59:01;24.87;;;10.43;;
68944;SDS011;55984;48.790;8.990;2023-04-15T04:01:27;25.23;;;10.77;;
68944;SDS011;55984;48.790;8.990;2023-04-15T04:03:55;23.80;;;11.07;;
68944;SDS011;55984;48.790;8.990;2023-04-15T04:06:23;27.13;;;11.02;;
68944;SDS011;55984;48.790;8.990;2023-04-15T04:08:51;30.40;;;10.57;;
68944;SDS011;55984;48.790;8.990;2023-04-15T04:11:17;32.85;;;11.90;;
68944;SDS011;55984;48.790;8.990;2023-04-15T04:13:51;30.13;;;12.10;;
68944;SDS011;55984;48.790;8.990;2023-04-15T04:16:17;33.05;;;11.55;;
68944;SDS011;55984;48.790;8.990;2023-04-15T04:21:31;33.37;;;12.20;;
68944;SDS011;55984;48.790;8.990;2023-04-15T04:26:41;28.27;;;11.77;;
68944;SDS011;55984;48.790;8.990;2023-04-15T04:29:13;35.95;;;12.52;;
68944;SDS011;55984;48.790;8.990;2023-04-15T04:31:38;30.97;;;12.10;;
68944;SDS011;55984;48.790;8.990;2023-04-15T04:34:05;27.88;;;11.63;;
68944;SDS011;55984;48.790;8.990;2023-04-15T04:36:32;30.60;;;10.93;;
68944;SDS011;55984;48.790;8.990;2023-04-15T04:38:58;38.73;;;11.50;;
68944;SDS011;55984;48.790;8.990;2023-04-15T04:41:25;30.67;;;12.07;;
68944;SDS011;55984;48.790;8.990;2023-04-15T04:43:53;30.17;;;12.73;;
68944;SDS011;55984;48.790;8.990;2023-04-15T04:46:19;28.67;;;12.50;;
68944;SDS011;55984;48.790;8.990;2023-04-15T04:48:45;36.45;;;13.75;;
68944;SDS011;55984;48.790;8.990;2023-04-15T04:51:12;30.08;;;11.68;;
68944;SDS011;55984;48.790;8.990;2023-04-15T04:53:39;36.15;;;12.05;;
68944;SDS011;55984;48.790;8.990;2023-04-15T04:56:07;32.80;;;12.83;;
68944;SDS011;55984;48.790;8.990;2023-04-15T04:58:35;33.60;;;11.93;;
68944;SDS011;55984;48.790;8.990;2023-04-15T05:01:02;31.80;;;12.03;;
68944;SDS011;55984;48.790;8.990;2023-04-15T05:03:28;30.83;;;11.80;;
68944;SDS011;55984;48.790;8.990;2023-04-15T05:05:54;33.53;;;12.68;;
68944;SDS011;55984;48.790;8.990;2023-04-15T05:08:21;36.37;;;12.83;;
68944;SDS011;55984;48.790;8.990;2023-04-15T05:10:47;32.17;;;11.38;;
68944;SDS011;55984;48.790;8.990;2023-04-15T05:13:15;36.90;;;12.93;;
68944;SDS011;55984;48.790;8.990;2023-04-15T05:15:40;29.67;;;12.03;;
68944;SDS011;55984;48.790;8.990;2023-04-15T05:18:08;33.77;;;13.23;;
68944;SDS011;55984;48.790;8.990;2023-04-15T05:20:34;37.33;;;12.50;;
68944;SDS011;55984;48.790;8.990;2023-04-15T05:23:03;36.37;;;15.10;;
68944;SDS011;55984;48.790;8.990;2023-04-15T05:25:29;37.07;;;14.03;;
68944;SDS011;55984;48.790;8.990;2023-04-15T05:27:55;34.93;;;12.93;;
68944;SDS011;55984;48.790;8.990;2023-04-15T05:30:21;31.23;;;13.33;;
68944;SDS011;55984;48.790;8.990;2023-04-15T05:32:47;31.17;;;12.67;;
68944;SDS011;55984;48.790;8.990;2023-04-15T05:35:13;36.40;;;14.53;;
68944;SDS011;55984;48.790;8.990;2023-04-15T05:37:41;28.83;;;13.83;;
68944;SDS011;55984;48.790;8.990;2023-04-15T05:40:07;29.40;;;13.80;;
68944;SDS011;55984;48.790;8.990;2023-04-15T05:42:34;29.13;;;13.30;;
68944;SDS011;55984;48.790;8.990;2023-04-15T05:45:00;27.07;;;13.20;;
68944;SDS011;55984;48.790;8.990;2023-04-15T05:47:30;23.33;;;12.50;;
68944;SDS011;55984;48.790;8.990;2023-04-15T05:49:56;22.03;;;10.83;;
68944;SDS011;55984;48.790;8.990;2023-04-15T05:52:23;20.97;;;9.93;;
68944;SDS011;55984;48.790;8.990;2023-04-15T05:54:50;21.37;;;9.00;;
68944;SDS011;55984;48.790;8.990;2023-04-15T05:57:22;22.50;;;8.43;;
68944;SDS011;55984;48.790;8.990;2023-04-15T05:59:48;18.93;;;9.20;;
68944;SDS011;55984;48.790;8.990;2023-04-15T06:02:17;22.33;;;8.47;;
68944;SDS011;55984;48.790;8.990;2023-04-15T06:04:42;16.43;;;8.50;;
68944;SDS011;55984;48.790;8.990;2023-04-15T06:07:08;17.60;;;7.93;;
68944;SDS011;55984;48.790;8.990;2023-04-15T06:09:35;17.80;;;8.77;;
68944;SDS011;55984;48.790;8.990;2023-04-15T06:12:04;18.40;;;9.10;;
68944;SDS011;55984;48.790;8.990;2023-04-15T06:14:36;18.53;;;8.50;;
68944;SDS011;55984;48.790;8.990;2023-04-15T06:17:02;24.00;;;7.73;;
68944;SDS011;55984;48.790;8.990;2023-04-15T06:19:30;20.07;;;8.10;;
68944;SDS011;55984;48.790;8.990;2023-04-15T06:21:56;16.63;;;7.83;;
68944;SDS011;55984;48.790;8.990;2023-04-15T06:24:23;14.33;;;8.13;;
68944;SDS011;55984;48.790;8.990;2023-04-15T06:26:49;17.17;;;8.57;;
68944;SDS011;55984;48.790;8.990;2023-04-15T06:29:17;17.40;;;8.03;;
68944;SDS011;55984;48.790;8.990;2023-04-15T06:31:43;19.63;;;8.60;;
68944;SDS011;55984;48.790;8.990;2023-04-15T06:34:09;16.80;;;8.53;;
68944;SDS011;55984;48.790;8.990;2023-04-15T06:36:35;18.13;;;8.80;;
68944;SDS011;55984;48.790;8.990;2023-04-15T06:39:01;16.17;;;8.10;;
68944;SDS011;55984;48.790;8.990;2023-04-15T06:41:26;13.13;;;8.00;;
68944;SDS011;55984;48.790;8.990;2023-04-15T06:43:57;21.23;;;8.40;;
68944;SDS011;55984;48.790;8.990;2023-04-15T06:46:23;15.30;;;7.97;;
68944;SDS011;55984;48.790;8.990;2023-04-15T06:48:48;18.10;;;7.83;;
68944;SDS011;55984;48.790;8.990;2023-04-15T06:51:16;18.67;;;8.23;;
68944;SDS011;55984;48.790;8.990;2023-04-15T06:53:42;10.90;;;6.50;;
68944;SDS011;55984;48.790;8.990;2023-04-15T06:56:08;12.03;;;6.63;;
68944;SDS011;55984;48.790;8.990;2023-04-15T06:58:34;15.87;;;7.50;;
68944;SDS011;55984;48.790;8.990;2023-04-15T07:01:00;16.27;;;7.37;;
68944;SDS011;55984;48.790;8.990;2023-04-15T07:03:27;22.50;;;6.00;;
68944;SDS011;55984;48.790;8.990;2023-04-15T07:05:53;12.57;;;5.97;;
68944;SDS011;55984;48.790;8.990;2023-04-15T07:08:20;10.80;;;5.63;;
68944;SDS011;55984;48.790;8.990;2023-04-15T07:10:46;13.70;;;6.30;;
68944;SDS011;55984;48.790;8.990;2023-04-15T07:13:12;13.07;;;5.50;;
68944;SDS011;55984;48.790;8.990;2023-04-15T07:15:38;9.03;;;5.03;;
68944;SDS011;55984;48.790;8.990;2023-04-15T07:18:05;9.03;;;5.50;;
68944;SDS011;55984;48.790;8.990;2023-04-15T07:20:30;11.40;;;6.00;;
68944;SDS011;55984;48.790;8.990;2023-04-15T07:22:57;18.17;;;7.70;;
68944;SDS011;55984;48.790;8.990;2023-04-15T07:25:23;15.27;;;7.40;;
68944;SDS011;55984;48.790;8.990;2023-04-15T07:27:51;13.40;;;6.80;;
68944;SDS011;55984;48.790;8.990;2023-04-15T07:30:17;18.37;;;7.23;;
68944;SDS011;55984;48.790;8.990;2023-04-15T07:32:43;12.93;;;6.50;;
68944;SDS011;55984;48.790;8.990;2023-04-15T07:35:09;10.60;;;6.10;;
68944;SDS011;55984;48.790;8.990;2023-04-15T07:37:35;12.00;;;5.90;;
68944;SDS011;55984;48.790;8.990;2023-04-15T07:40:01;16.23;;;6.40;;
68944;SDS011;55984;48.790;8.990;2023-04-15T07:42:31;10.47;;;5.40;;
68944;SDS011;55984;48.790;8.990;2023-04-15T07:44:57;11.57;;;5.20;;
68944;SDS011;55984;48.790;8.990;2023-04-15T07:47:23;8.23;;;4.83;;
68944;SDS011;55984;48.790;8.990;2023-04-15T07:49:48;11.70;;;4.83;;
68944;SDS011;55984;48.790;8.990;2023-04-15T07:52:15;14.47;;;5.00;;
68944;SDS011;55984;48.790;8.990;2023-04-15T07:54:41;8.37;;;4.60;;
68944;SDS011;55984;48.790;8.990;2023-04-15T07:57:07;12.30;;;5.40;;
68944;SDS011;55984;48.790;8.990;2023-04-15T07:59:33;11.30;;;4.33;;
68944;SDS011;55984;48.790;8.990;2023-04-15T08:01:59;8.67;;;4.33;;
68944;SDS011;55984;48.790;8.990;2023-04-15T08:04:27;7.53;;;3.70;;
68944;SDS011;55984;48.790;8.990;2023-04-15T08:06:53;7.07;;;3.83;;
68944;SDS011;55984;48.790;8.990;2023-04-15T08:09:19;6.90;;;4.33;;
68944;SDS011;55984;48.790;8.990;2023-04-15T08:11:47;7.27;;;3.60;;
68944;SDS011;55984;48.790;8.990;2023-04-15T08:16:45;8.20;;;4.00;;
68944;SDS011;55984;48.790;8.990;2023-04-15T08:19:11;13.10;;;4.10;;
68944;SDS011;55984;48.790;8.990;2023-04-15T08:21:37;9.27;;;4.40;;
68944;SDS011;55984;48.790;8.990;2023-04-15T08:24:03;8.37;;;4.13;;
68944;SDS011;55984;48.790;8.990;2023-04-15T08:26:30;13.33;;;4.00;;
68944;SDS011;55984;48.790;8.990;2023-04-15T08:28:56;8.30;;;3.90;;
68944;SDS011;55984;48.790;8.990;2023-04-15T08:31:22;10.17;;;4.10;;
68944;SDS011;55984;48.790;8.990;2023-04-15T08:33:49;8.10;;;3.90;;
68944;SDS011;55984;48.790;8.990;2023-04-15T08:36:17;11.88;;;4.30;;
68944;SDS011;55984;48.790;8.990;2023-04-15T08:38:44;9.40;;;3.70;;
68944;SDS011;55984;48.790;8.990;2023-04-15T08:43:50;8.43;;;3.23;;
68944;SDS011;55984;48.790;8.990;2023-04-15T08:46:47;7.00;;;2.97;;
68944;SDS011;55984;48.790;8.990;2023-04-15T08:49:13;7.50;;;3.10;;
68944;SDS011;55984;48.790;8.990;2023-04-15T08:51:42;5.63;;;2.93;;
68944;SDS011;55984;48.790;8.990;2023-04-15T08:56:39;6.00;;;2.90;;
68944;SDS011;55984;48.790;8.990;2023-04-15T08:59:07;7.63;;;3.40;;
68944;SDS011;55984;48.790;8.990;2023-04-15T09:01:33;7.47;;;3.10;;
68944;SDS011;55984;48.790;8.990;2023-04-15T09:04:01;6.20;;;3.03;;
68944;SDS011;55984;48.790;8.990;2023-04-15T09:06:30;4.70;;;2.83;;
68944;SDS011;55984;48.790;8.990;2023-04-15T09:08:56;5.20;;;2.90;;
68944;SDS011;55984;48.790;8.990;2023-04-15T09:11:22;7.23;;;3.20;;
68944;SDS011;55984;48.790;8.990;2023-04-15T09:13:48;4.40;;;3.03;;
68944;SDS011;55984;48.790;8.990;2023-04-15T09:16:14;6.63;;;3.33;;
68944;SDS011;55984;48.790;8.990;2023-04-15T09:18:40;5.40;;;2.83;;
68944;SDS011;55984;48.790;8.990;2023-04-15T09:21:12;6.10;;;3.10;;
68944;SDS011;55984;48.790;8.990;2023-04-15T09:23:40;7.70;;;3.67;;
68944;SDS011;55984;48.790;8.990;2023-04-15T09:26:19;7.97;;;3.43;;
68944;SDS011;55984;48.790;8.990;2023-04-15T09:29:01;6.17;;;3.20;;
68944;SDS011;55984;48.790;8.990;2023-04-15T09:31:34;4.70;;;3.00;;
68944;SDS011;55984;48.790;8.990;2023-04-15T09:34:01;8.40;;;3.33;;
68944;SDS011;55984;48.790;8.990;2023-04-15T09:36:27;8.80;;;3.17;;
68944;SDS011;55984;48.790;8.990;2023-04-15T09:38:59;4.50;;;3.17;;
68944;SDS011;55984;48.790;8.990;2023-04-15T09:41:25;11.07;;;4.13;;
68944;SDS011;55984;48.790;8.990;2023-04-15T09:43:52;7.70;;;3.43;;
68944;SDS011;55984;48.790;8.990;2023-04-15T09:46:18;6.47;;;3.20;;
68944;SDS011;55984;48.790;8.990;2023-04-15T09:51:48;5.10;;;3.27;;
68944;SDS011;55984;48.790;8.990;2023-04-15T09:54:23;6.23;;;3.10;;
68944;SDS011;55984;48.790;8.990;2023-04-15T09:56:49;4.97;;;3.30;;
68944;SDS011;55984;48.790;8.990;2023-04-15T09:59:21;5.00;;;3.30;;
68944;SDS011;55984;48.790;8.990;2023-04-15T10:01:48;6.00;;;3.50;;
68944;SDS011;55984;48.790;8.990;2023-04-15T10:04:25;6.47;;;3.50;;
68944;SDS011;55984;48.790;8.990;2023-04-15T10:06:52;7.17;;;3.30;;
68944;SDS011;55984;48.790;8.990;2023-04-15T10:09:18;6.43;;;3.50;;
68944;SDS011;55984;48.790;8.990;2023-04-15T10:11:53;9.07;;;4.03;;
68944;SDS011;55984;48.790;8.990;2023-04-15T10:14:20;6.87;;;4.00;;
68944;SDS011;55984;48.790;8.990;2023-04-15T10:16:46;9.20;;;3.87;;
68944;SDS011;55984;48.790;8.990;2023-04-15T10:19:14;7.50;;;3.80;;
68944;SDS011;55984;48.790;8.990;2023-04-15T10:21:43;8.97;;;4.57;;
68944;SDS011;55984;48.790;8.990;2023-04-15T10:24:10;10.90;;;4.50;;
68944;SDS011;55984;48.790;8.990;2023-04-15T10:26:37;9.60;;;4.07;;
68944;SDS011;55984;48.790;8.990;2023-04-15T10:29:03;7.53;;;4.10;;
68944;SDS011;55984;48.790;8.990;2023-04-15T10:31:30;6.80;;;4.03;;
68944;SDS011;55984;48.790;8.990;2023-04-15T10:33:58;9.43;;;4.00;;
68944;SDS011;55984;48.790;8.990;2023-04-15T10:36:29;5.63;;;3.83;;
68944;SDS011;55984;48.790;8.990;2023-04-15T10:38:55;7.30;;;3.83;;
68944;SDS011;55984;48.790;8.990;2023-04-15T10:41:21;10.07;;;4.73;;
68944;SDS011;55984;48.790;8.990;2023-04-15T10:43:51;7.63;;;4.30;;
68944;SDS011;55984;48.790;8.990;2023-04-15T10:46:40;12.07;;;4.70;;
68944;SDS011;55984;48.790;8.990;2023-04-15T10:49:15;13.30;;;4.57;;
68944;SDS011;55984;48.790;8.990;2023-04-15T10:51:45;9.03;;;5.03;;
68944;SDS011;55984;48.790;8.990;2023-04-15T11:00:09;8.77;;;4.17;;
68944;SDS011;55984;48.790;8.990;2023-04-15T11:05:17;11.00;;;4.20;;
68944;SDS011;55984;48.790;8.990;2023-04-15T11:13:16;8.87;;;3.93;;
68944;SDS011;55984;48.790;8.990;2023-04-15T11:15:54;8.80;;;4.53;;
68944;SDS011;55984;48.790;8.990;2023-04-15T11:18:25;9.53;;;4.53;;
68944;SDS011;55984;48.790;8.990;2023-04-15T11:21:01;9.43;;;3.90;;
68944;SDS011;55984;48.790;8.990;2023-04-15T11:23:32;14.53;;;5.30;;
68944;SDS011;55984;48.790;8.990;2023-04-15T11:26:11;9.30;;;4.73;;
68944;SDS011;55984;48.790;8.990;2023-04-15T11:32:07;10.23;;;4.43;;
68944;SDS011;55984;48.790;8.990;2023-04-15T11:34:36;9.80;;;3.93;;
68944;SDS011;55984;48.790;8.990;2023-04-15T11:37:03;10.07;;;4.00;;
68944;SDS011;55984;48.790;8.990;2023-04-15T11:39:33;8.00;;;4.33;;
68944;SDS011;55984;48.790;8.990;2023-04-15T11:41:59;14.63;;;4.10;;
68944;SDS011;55984;48.790;8.990;2023-04-15T11:46:55;8.30;;;4.07;;
68944;SDS011;55984;48.790;8.990;2023-04-15T11:49:25;9.87;;;4.30;;
68944;SDS011;55984;48.790;8.990;2023-04-15T11:51:58;9.40;;;3.60;;
68944;SDS011;55984;48.790;8.990;2023-04-15T11:57:33;9.10;;;4.30;;
68944;SDS011;55984;48.790;8.990;2023-04-15T12:03:24;9.10;;;4.97;;
68944;SDS011;55984;48.790;8.990;2023-04-15T12:08:50;10.63;;;5.50;;
68944;SDS011;55984;48.790;8.990;2023-04-15T12:11:26;13.20;;;5.47;;
68944;SDS011;55984;48.790;8.990;2023-04-15T12:16:41;8.60;;;5.03;;
68944;SDS011;55984;48.790;8.990;2023-04-15T12:19:11;9.77;;;5.10;;
68944;SDS011;55984;48.790;8.990;2023-04-15T12:21:41;11.23;;;5.07;;
68944;SDS011;55984;48.790;8.990;2023-04-15T12:24:10;10.50;;;5.10;;
68944;SDS011;55984;48.790;8.990;2023-04-15T12:26:46;11.50;;;5.63;;
68944;SDS011;55984;48.790;8.990;2023-04-15T12:29:28;8.47;;;5.17;;
68944;SDS011;55984;48.790;8.990;2023-04-15T12:32:02;11.10;;;5.23;;
68944;SDS011;55984;48.790;8.990;2023-04-15T12:34:40;12.33;;;5.80;;
68944;SDS011;55984;48.790;8.990;2023-04-15T12:37:08;10.43;;;5.50;;
68944;SDS011;55984;48.790;8.990;2023-04-15T12:42:15;11.73;;;5.07;;
68944;SDS011;55984;48.790;8.990;2023-04-15T12:44:48;9.43;;;5.30;;
68944;SDS011;55984;48.790;8.990;2023-04-15T12:47:17;11.20;;;5.33;;
68944;SDS011;55984;48.790;8.990;2023-04-15T12:49:43;12.93;;;5.70;;
68944;SDS011;55984;48.790;8.990;2023-04-15T13:25:59;6.73;;;4.00;;
68944;SDS011;55984;48.790;8.990;2023-04-15T13:42:45;6.80;;;4.00;;
68944;SDS011;55984;48.790;8.990;2023-04-15T13:45:32;14.93;;;4.20;;
68944;SDS011;55984;48.790;8.990;2023-04-15T14:18:32;5.57;;;3.27;;
68944;SDS011;55984;48.790;8.990;2023-04-15T14:21:00;5.73;;;3.17;;
68944;SDS011;55984;48.790;8.990;2023-04-15T14:23:27;5.60;;;3.20;;
68944;SDS011;55984;48.790;8.990;2023-04-15T14:25:55;5.33;;;3.23;;
68944;SDS011;55984;48.790;8.990;2023-04-15T14:28:21;7.47;;;3.30;;
68944;SDS011;55984;48.790;8.990;2023-04-15T14:30:56;5.90;;;3.57;;
68944;SDS011;55984;48.790;8.990;2023-04-15T14:33:22;8.00;;;3.80;;
68944;SDS011;55984;48.790;8.990;2023-04-15T14:35:48;6.50;;;3.93;;
68944;SDS011;55984;48.790;8.990;2023-04-15T14:38:16;7.40;;;3.70;;
68944;SDS011;55984;48.790;8.990;2023-04-15T14:40:42;5.97;;;3.37;;
68944;SDS011;55984;48.790;8.990;2023-04-15T14:43:10;6.53;;;3.90;;
68944;SDS011;55984;48.790;8.990;2023-04-15T14:45:36;7.63;;;3.77;;
68944;SDS011;55984;48.790;8.990;2023-04-15T14:48:10;5.73;;;3.50;;
68944;SDS011;55984;48.790;8.990;2023-04-15T14:50:36;11.33;;;3.70;;
68944;SDS011;55984;48.790;8.990;2023-04-15T14:53:04;6.70;;;3.70;;
68944;SDS011;55984;48.790;8.990;2023-04-15T14:55:30;8.70;;;4.27;;
68944;SDS011;55984;48.790;8.990;2023-04-15T14:58:06;7.17;;;4.53;;
68944;SDS011;55984;48.790;8.990;2023-04-15T15:00:34;6.97;;;4.37;;
68944;SDS011;55984;48.790;8.990;2023-04-15T15:03:03;7.70;;;4.40;;
68944;SDS011;55984;48.790;8.990;2023-04-15T15:05:36;8.30;;;4.60;;
68944;SDS011;55984;48.790;8.990;2023-04-15T15:08:12;7.40;;;4.10;;
68944;SDS011;55984;48.790;8.990;2023-04-15T15:10:39;7.43;;;4.53;;
68944;SDS011;55984;48.790;8.990;2023-04-15T15:13:07;9.00;;;4.43;;
68944;SDS011;55984;48.790;8.990;2023-04-15T15:15:36;8.20;;;4.17;;
68944;SDS011;55984;48.790;8.990;2023-04-15T15:18:02;8.60;;;4.47;;
68944;SDS011;55984;48.790;8.990;2023-04-15T15:20:31;6.73;;;4.00;;
68944;SDS011;55984;48.790;8.990;2023-04-15T15:22:58;13.30;;;4.20;;
68944;SDS011;55984;48.790;8.990;2023-04-15T15:25:25;7.30;;;3.97;;
68944;SDS011;55984;48.790;8.990;2023-04-15T15:27:56;8.03;;;4.00;;
68944;SDS011;55984;48.790;8.990;2023-04-15T15:30:28;6.20;;;3.80;;
68944;SDS011;55984;48.790;8.990;2023-04-15T15:32:54;4.93;;;3.23;;
68944;SDS011;55984;48.790;8.990;2023-04-15T15:35:21;6.10;;;3.10;;
68944;SDS011;55984;48.790;8.990;2023-04-15T15:37:58;6.53;;;3.10;;
68944;SDS011;55984;48.790;8.990;2023-04-15T15:40:25;4.20;;;2.70;;
68944;SDS011;55984;48.790;8.990;2023-04-15T15:42:51;6.13;;;2.80;;
68944;SDS011;55984;48.790;8.990;2023-04-15T15:45:17;4.30;;;2.70;;
68944;SDS011;55984;48.790;8.990;2023-04-15T15:47:43;4.73;;;2.90;;
68944;SDS011;55984;48.790;8.990;2023-04-15T15:50:09;7.63;;;3.27;;
68944;SDS011;55984;48.790;8.990;2023-04-15T15:52:49;5.50;;;3.00;;
68944;SDS011;55984;48.790;8.990;2023-04-15T15:55:15;5.80;;;2.73;;
68944;SDS011;55984;48.790;8.990;2023-04-15T15:57:47;7.07;;;3.07;;
68944;SDS011;55984;48.790;8.990;2023-04-15T16:00:23;5.40;;;2.60;;
68944;SDS011;55984;48.790;8.990;2023-04-15T16:02:49;11.63;;;3.47;;
68944;SDS011;55984;48.790;8.990;2023-04-15T16:05:19;4.97;;;2.90;;
68944;SDS011;55984;48.790;8.990;2023-04-15T16:07:45;5.00;;;3.40;;
68944;SDS011;55984;48.790;8.990;2023-04-15T16:13:07;5.77;;;3.40;;
68944;SDS011;55984;48.790;8.990;2023-04-15T16:15:36;8.83;;;4.40;;
68944;SDS011;55984;48.790;8.990;2023-04-15T16:18:04;4.50;;;3.10;;
68944;SDS011;55984;48.790;8.990;2023-04-15T16:20:30;8.40;;;4.43;;
68944;SDS011;55984;48.790;8.990;2023-04-15T16:23:11;11.00;;;3.93;;
68944;SDS011;55984;48.790;8.990;2023-04-15T16:25:42;13.83;;;3.37;;
68944;SDS011;55984;48.790;8.990;2023-04-15T16:28:09;6.20;;;3.40;;
68944;SDS011;55984;48.790;8.990;2023-04-15T16:30:35;7.83;;;3.70;;
68944;SDS011;55984;48.790;8.990;2023-04-15T16:33:03;5.83;;;3.60;;
68944;SDS011;55984;48.790;8.990;2023-04-15T16:35:30;5.87;;;3.60;;
68944;SDS011;55984;48.790;8.990;2023-04-15T16:37:57;5.40;;;3.07;;
68944;SDS011;55984;48.790;8.990;2023-04-15T16:40:23;8.23;;;3.40;;
68944;SDS011;55984;48.790;8.990;2023-04-15T16:42:50;5.67;;;3.30;;
68944;SDS011;55984;48.790;8.990;2023-04-15T16:45:16;8.90;;;4.10;;
68944;SDS011;55984;48.790;8.990;2023-04-15T16:47:42;8.70;;;4.10;;
68944;SDS011;55984;48.790;8.990;2023-04-15T16:50:08;6.80;;;4.30;;
68944;SDS011;55984;48.790;8.990;2023-04-15T16:52:34;6.83;;;4.17;;
68944;SDS011;55984;48.790;8.990;2023-04-15T16:55:01;7.87;;;3.97;;
68944;SDS011;55984;48.790;8.990;2023-04-15T16:57:27;6.03;;;3.90;;
68944;SDS011;55984;48.790;8.990;2023-04-15T16:59:53;7.60;;;4.23;;
68944;SDS011;55984;48.790;8.990;2023-04-15T17:02:19;7.00;;;4.70;;
68944;SDS011;55984;48.790;8.990;2023-04-15T17:04:47;6.93;;;4.33;;
68944;SDS011;55984;48.790;8.990;2023-04-15T17:07:13;14.30;;;4.93;;